KDMA

Davis Monthan AFB Airport

Tucson, Arizona, USA
METAR KDMA 212358Z AUTO 31010KT 10SM SCT180 14/M04 A3000 RMK AO2 SLPNO T01411037 10164 20111 55005
Observed Flight Rules
Feb-21 @ 23:58 UTC (5 hours ago) Visual Flight Rules
Wind Visibility Clouds
310° at 10 knots 10 miles
  • Scattered at 18,000' AGL
Temperatures Readings
Current 14°C / 57°F
Dewpoint -4°C / 25°F
Humidity 29%
Altimeter 30" Hg
Pressure 1016 hPa
Elevation 824
METAR KDMA 212358Z AUTO 31010KT 10SM SCT180 14/M04 A3000 RMK AO2 SLPNO T01411037 10164 20111 55005
Observed Flight Rules
Feb-21 @ 23:58 UTC
(5 hours ago)
VFR
Wind Visibility
310° at 10 knots 10 miles
Clouds
  • Scattered at 18,000' AGL
Temperature Dewpoint
14°C / 57°F -4°C / 25°F
Humidity Altimeter Pressure
29% 30" Hg 1016 hPa